createdAt,value
2019-03-25T00:01:20.867Z,0.83
2019-03-25T00:02:57.357Z,0.84
2019-03-25T00:04:34.053Z,0.95
2019-03-25T00:06:10.953Z,0.89
2019-03-25T00:07:46.630Z,0.98
2019-03-25T00:09:22.454Z,0.95
2019-03-25T00:10:58.338Z,0.95
2019-03-25T00:12:35.384Z,0.83
2019-03-25T00:14:13.184Z,0.74
2019-03-25T00:15:49.727Z,0.70
2019-03-25T00:17:25.727Z,0.75
2019-03-25T00:19:01.346Z,0.81
2019-03-25T00:20:37.452Z,0.81
2019-03-25T00:22:13.194Z,0.83
2019-03-25T00:23:49.068Z,0.94
2019-03-25T00:25:25.415Z,0.97
2019-03-25T00:27:01.775Z,1.05
2019-03-25T00:28:39.163Z,1.12
2019-03-25T00:30:16.819Z,1.24
2019-03-25T00:31:53.954Z,1.27
2019-03-25T00:33:31.472Z,1.32
2019-03-25T00:35:07.501Z,1.38
2019-03-25T00:36:44.187Z,1.42
2019-03-25T00:38:20.452Z,1.50
2019-03-25T00:39:58.677Z,1.50
2019-03-25T00:41:34.558Z,1.52
2019-03-25T00:43:10.329Z,1.56
2019-03-25T00:44:46.328Z,1.58
2019-03-25T00:46:21.968Z,1.62
2019-03-25T00:47:57.835Z,1.61
2019-03-25T00:49:43.209Z,1.63
2019-03-25T00:51:22.486Z,1.66
2019-03-25T00:53:00.814Z,1.69
2019-03-25T00:54:37.818Z,1.72
2019-03-25T00:56:13.568Z,1.73
2019-03-25T00:57:52.101Z,1.75
2019-03-25T00:59:28.202Z,1.74
2019-03-25T01:01:03.798Z,1.75
2019-03-25T01:02:41.765Z,1.75
2019-03-25T01:04:20.684Z,1.75
2019-03-25T01:05:56.531Z,1.77
2019-03-25T01:07:34.294Z,1.80
2019-03-25T01:09:10.385Z,1.82
2019-03-25T01:10:46.473Z,1.83
2019-03-25T01:12:24.951Z,1.82
2019-03-25T01:14:00.593Z,1.83
2019-03-25T01:15:36.589Z,1.85
2019-03-25T01:17:12.457Z,1.86
2019-03-25T01:18:48.059Z,1.89
2019-03-25T01:20:24.300Z,1.88
2019-03-25T01:22:00.037Z,1.88
2019-03-25T01:23:36.010Z,1.88
2019-03-25T01:25:11.677Z,1.88
2019-03-25T01:26:47.433Z,1.88
2019-03-25T01:28:23.253Z,1.86
2019-03-25T01:29:59.568Z,1.85
2019-03-25T01:31:37.319Z,1.85
2019-03-25T01:33:13.071Z,1.89
2019-03-25T01:34:48.765Z,1.85
2019-03-25T01:36:25.252Z,1.85
2019-03-25T01:38:01.052Z,1.84
2019-03-25T01:39:37.662Z,1.84
2019-03-25T01:41:15.153Z,1.87
2019-03-25T01:42:51.419Z,1.88
2019-03-25T01:44:30.241Z,1.90
2019-03-25T01:46:05.718Z,1.94
2019-03-25T01:47:43.962Z,1.96
2019-03-25T01:49:20.098Z,1.97
2019-03-25T01:50:57.441Z,1.99
2019-03-25T01:52:33.949Z,1.99
2019-03-25T01:54:10.127Z,2.00
2019-03-25T01:55:47.390Z,2.01
2019-03-25T01:57:22.935Z,2.03
2019-03-25T01:58:58.834Z,2.02
2019-03-25T02:00:34.950Z,2.03
2019-03-25T02:02:11.443Z,2.03
2019-03-25T02:03:47.931Z,2.01
2019-03-25T02:05:23.736Z,1.98
2019-03-25T02:06:59.330Z,1.94
2019-03-25T02:08:35.676Z,1.90
2019-03-25T02:10:12.285Z,1.87
2019-03-25T02:11:48.335Z,1.83
2019-03-25T02:13:24.263Z,1.78
2019-03-25T02:15:03.364Z,1.75
2019-03-25T02:16:50.668Z,1.71
2019-03-25T02:18:41.117Z,1.69
2019-03-25T02:20:32.807Z,1.66
2019-03-25T02:22:08.465Z,1.63
2019-03-25T02:23:44.437Z,1.69
2019-03-25T02:25:25.470Z,1.69
2019-03-25T02:26:57.500Z,1.72
2019-03-25T02:28:33.449Z,1.74
2019-03-25T02:30:09.850Z,1.76
2019-03-25T02:31:47.573Z,1.82
2019-03-25T02:33:23.786Z,1.82
2019-03-25T02:34:59.521Z,1.82
2019-03-25T02:36:35.655Z,1.85
2019-03-25T02:38:11.912Z,1.85
2019-03-25T02:39:47.764Z,1.87
2019-03-25T02:41:23.542Z,1.89
2019-03-25T02:42:59.369Z,1.88
2019-03-25T02:44:34.979Z,1.89
2019-03-25T02:46:10.645Z,1.90
2019-03-25T02:47:46.811Z,1.94
2019-03-25T02:49:24.295Z,1.94
2019-03-25T02:51:00.077Z,1.92
2019-03-25T02:52:35.934Z,1.92
2019-03-25T02:54:11.608Z,1.92
2019-03-25T02:55:47.476Z,1.89
2019-03-25T02:57:23.621Z,1.89
2019-03-25T02:59:00.119Z,1.89
2019-03-25T03:00:37.085Z,1.85
2019-03-25T03:02:12.675Z,1.86
2019-03-25T03:03:48.910Z,1.81
2019-03-25T03:05:24.638Z,1.83
2019-03-25T03:07:02.174Z,1.83
2019-03-25T03:08:38.486Z,1.86
2019-03-25T03:10:14.163Z,1.84
2019-03-25T03:11:50.242Z,1.87
2019-03-25T03:13:26.025Z,1.90
2019-03-25T03:15:03.563Z,1.92
2019-03-25T03:16:39.520Z,1.92
2019-03-25T03:18:15.763Z,1.92
2019-03-25T03:19:55.031Z,1.93
2019-03-25T03:21:29.146Z,1.96
2019-03-25T03:23:04.806Z,1.99
2019-03-25T03:24:40.771Z,1.99
2019-03-25T03:26:19.535Z,2.03
2019-03-25T03:27:55.296Z,1.96
2019-03-25T03:29:30.889Z,1.97
2019-03-25T03:31:07.368Z,1.97
2019-03-25T03:32:43.373Z,1.96
2019-03-25T03:34:19.630Z,1.94
2019-03-25T03:35:56.208Z,1.94
2019-03-25T03:37:32.730Z,1.99
2019-03-25T03:39:08.709Z,2.00
2019-03-25T03:40:44.629Z,2.01
2019-03-25T03:42:20.337Z,2.02
2019-03-25T03:43:56.277Z,2.00
2019-03-25T03:45:32.139Z,2.02
2019-03-25T03:47:08.492Z,2.04
2019-03-25T03:48:44.954Z,2.02
2019-03-25T03:50:30.346Z,1.99
2019-03-25T03:52:06.070Z,1.98
2019-03-25T03:53:41.710Z,2.00
2019-03-25T03:55:17.902Z,2.02
2019-03-25T03:56:54.138Z,2.02
2019-03-25T03:58:29.982Z,2.02
2019-03-25T04:00:14.132Z,2.02
2019-03-25T04:01:50.339Z,2.00
2019-03-25T04:03:26.351Z,2.01
2019-03-25T04:05:02.914Z,2.03
2019-03-25T04:06:38.645Z,2.04
2019-03-25T04:08:14.551Z,2.05
2019-03-25T04:09:50.921Z,2.09
2019-03-25T04:11:26.625Z,2.10
2019-03-25T04:13:02.253Z,2.09
2019-03-25T04:14:38.435Z,2.10
2019-03-25T04:16:14.210Z,2.09
2019-03-25T04:17:50.639Z,2.09
2019-03-25T04:19:26.650Z,2.09
2019-03-25T04:21:02.317Z,2.08
2019-03-25T04:22:37.944Z,2.10
2019-03-25T04:24:13.634Z,2.11
2019-03-25T04:25:49.642Z,2.11
2019-03-25T04:27:25.393Z,2.14
2019-03-25T04:29:01.156Z,2.12
2019-03-25T04:30:36.799Z,2.12
2019-03-25T04:32:12.860Z,2.14
2019-03-25T04:33:49.033Z,2.17
2019-03-25T04:35:25.066Z,2.18
2019-03-25T04:37:00.713Z,2.21
2019-03-25T04:38:37.079Z,2.23
2019-03-25T04:40:13.207Z,2.21
2019-03-25T04:41:54.759Z,2.20
2019-03-25T04:43:30.517Z,2.19
2019-03-25T04:45:07.593Z,2.22
2019-03-25T04:46:46.752Z,2.24
2019-03-25T04:48:25.015Z,2.25
2019-03-25T04:50:00.880Z,2.24
2019-03-25T04:51:36.705Z,2.27
2019-03-25T04:53:12.419Z,2.29
2019-03-25T04:54:48.623Z,2.32
2019-03-25T04:56:24.332Z,2.34
2019-03-25T04:58:00.667Z,2.35
2019-03-25T04:59:37.327Z,2.33
2019-03-25T05:01:13.480Z,2.35
2019-03-25T05:02:50.118Z,2.35
2019-03-25T05:04:26.038Z,2.34
2019-03-25T05:06:02.130Z,2.38
2019-03-25T05:07:37.827Z,2.39
2019-03-25T05:09:13.466Z,2.42
2019-03-25T05:10:50.083Z,2.43
2019-03-25T05:12:26.192Z,2.46
2019-03-25T05:14:02.308Z,2.50
2019-03-25T05:15:38.389Z,2.51
2019-03-25T05:17:14.285Z,2.53
2019-03-25T05:18:49.879Z,2.56
2019-03-25T05:20:25.699Z,2.59
2019-03-25T05:22:01.722Z,2.63
2019-03-25T05:23:37.464Z,2.66
2019-03-25T05:25:13.225Z,2.71
2019-03-25T05:26:51.261Z,2.72
2019-03-25T05:28:32.144Z,2.75
2019-03-25T05:30:08.301Z,2.78
2019-03-25T05:31:45.085Z,2.80
2019-03-25T05:33:20.793Z,2.81
2019-03-25T05:34:56.395Z,2.82
2019-03-25T05:36:33.780Z,2.83
2019-03-25T05:38:12.230Z,2.88
2019-03-25T05:39:47.923Z,2.87
2019-03-25T05:41:23.590Z,2.91
2019-03-25T05:42:59.235Z,2.92
2019-03-25T05:44:35.295Z,2.92
2019-03-25T05:46:11.026Z,2.92
2019-03-25T05:47:50.337Z,2.93
2019-03-25T05:49:27.097Z,2.92
2019-03-25T05:51:05.246Z,2.92
2019-03-25T05:52:41.154Z,2.90
2019-03-25T05:54:21.373Z,2.90
2019-03-25T05:55:59.409Z,2.90
2019-03-25T05:57:35.040Z,2.87
2019-03-25T05:59:12.665Z,2.87
2019-03-25T06:00:59.357Z,2.90
2019-03-25T06:02:36.488Z,2.90
2019-03-25T06:04:14.390Z,2.90
2019-03-25T06:05:50.780Z,2.87
2019-03-25T06:07:26.747Z,2.90
2019-03-25T06:09:02.377Z,2.91
2019-03-25T06:10:43.301Z,2.93
2019-03-25T06:12:19.901Z,2.91
2019-03-25T06:13:57.740Z,2.90
2019-03-25T06:15:37.008Z,2.91
2019-03-25T06:17:13.975Z,2.91
2019-03-25T06:18:52.713Z,2.94
2019-03-25T06:20:31.339Z,2.91
2019-03-25T06:22:07.368Z,2.92
2019-03-25T06:23:43.548Z,2.94
2019-03-25T06:25:21.327Z,2.94
2019-03-25T06:27:01.313Z,2.98
2019-03-25T06:28:37.550Z,2.96
2019-03-25T06:30:14.858Z,2.89
2019-03-25T06:31:53.223Z,2.85
2019-03-25T06:33:28.969Z,2.81
2019-03-25T06:35:08.637Z,2.78
2019-03-25T06:36:43.258Z,2.75
2019-03-25T06:38:23.826Z,2.70
2019-03-25T06:39:59.249Z,2.20
2019-03-25T06:41:40.183Z,1.95
2019-03-25T06:43:17.801Z,1.97
2019-03-25T06:44:56.001Z,1.77
2019-03-25T06:46:31.731Z,1.65
2019-03-25T06:48:07.923Z,1.50
2019-03-25T06:49:48.882Z,1.51
2019-03-25T06:51:24.831Z,1.54
2019-03-25T06:53:03.019Z,1.52
2019-03-25T06:54:40.250Z,1.62
2019-03-25T06:56:15.833Z,1.68
2019-03-25T06:57:51.948Z,1.76
2019-03-25T06:59:27.660Z,1.88
2019-03-25T07:01:07.130Z,1.99
2019-03-25T07:02:42.734Z,2.12
2019-03-25T07:04:22.678Z,2.35
2019-03-25T07:05:58.440Z,2.52
2019-03-25T07:07:39.850Z,2.62
2019-03-25T07:09:15.940Z,2.69
2019-03-25T07:10:54.773Z,2.77
2019-03-25T07:12:30.618Z,2.80
2019-03-25T07:14:06.532Z,2.85
2019-03-25T07:15:46.396Z,2.84
2019-03-25T07:17:22.265Z,2.85
2019-03-25T07:18:59.279Z,2.87
2019-03-25T07:20:37.653Z,2.88
2019-03-25T07:22:13.955Z,2.86
2019-03-25T07:23:50.166Z,2.97
2019-03-25T07:25:25.866Z,3.00
2019-03-25T07:27:02.033Z,3.01
2019-03-25T07:28:38.773Z,3.01
2019-03-25T07:30:18.265Z,3.01
2019-03-25T07:31:54.466Z,3.00
2019-03-25T07:33:30.281Z,2.97
2019-03-25T07:35:06.844Z,3.00
2019-03-25T07:38:24.459Z,3.23
2019-03-25T07:40:00.669Z,3.24
2019-03-25T07:41:37.762Z,3.28
2019-03-25T07:43:14.003Z,3.25
2019-03-25T07:44:50.497Z,3.25
2019-03-25T07:46:26.428Z,3.18
2019-03-25T07:48:04.102Z,3.15
2019-03-25T07:49:42.546Z,3.20
2019-03-25T07:51:24.327Z,3.18
2019-03-25T07:53:07.100Z,3.17
2019-03-25T07:54:46.777Z,3.22
2019-03-25T07:56:31.113Z,3.14
2019-03-25T07:58:10.122Z,3.07
2019-03-25T07:59:46.995Z,3.10
2019-03-25T08:01:22.862Z,3.10
2019-03-25T08:02:59.532Z,2.99
2019-03-25T08:04:38.886Z,2.97
2019-03-25T08:06:15.755Z,2.82
2019-03-25T08:07:55.089Z,2.53
2019-03-25T08:09:33.069Z,2.45
2019-03-25T08:11:09.253Z,2.28
2019-03-25T08:12:48.599Z,2.18
2019-03-25T08:14:26.231Z,2.16
2019-03-25T08:16:05.856Z,2.24
2019-03-25T08:17:44.937Z,2.28
2019-03-25T08:19:21.167Z,2.29
2019-03-25T08:20:58.561Z,2.29
2019-03-25T08:22:45.069Z,2.23
2019-03-25T08:24:29.261Z,2.23
2019-03-25T08:26:07.529Z,2.37
2019-03-25T08:27:59.787Z,2.54
2019-03-25T08:29:34.210Z,2.63
2019-03-25T08:31:10.940Z,2.68
2019-03-25T08:32:51.139Z,2.74
2019-03-25T08:34:30.393Z,2.78
2019-03-25T08:36:06.103Z,2.75
2019-03-25T08:37:42.409Z,2.84
2019-03-25T08:39:18.578Z,2.91
2019-03-25T08:41:22.250Z,2.81
2019-03-25T08:42:47.679Z,2.87
2019-03-25T08:44:26.065Z,2.87
2019-03-25T08:46:11.396Z,2.88
2019-03-25T08:47:49.484Z,2.83
2019-03-25T08:49:30.264Z,2.86
2019-03-25T08:51:06.710Z,2.84
2019-03-25T08:52:44.385Z,2.83
2019-03-25T08:54:20.375Z,2.81
2019-03-25T08:56:06.133Z,2.83
2019-03-25T08:57:44.143Z,2.82
2019-03-25T08:59:24.560Z,2.80
2019-03-25T09:01:00.463Z,2.86
2019-03-25T09:02:36.312Z,2.94
2019-03-25T09:04:12.343Z,2.96
2019-03-25T09:05:59.371Z,3.12
2019-03-25T09:07:37.482Z,3.21
2019-03-25T09:09:18.315Z,3.19
2019-03-25T09:10:57.485Z,3.20
2019-03-25T09:12:33.521Z,3.19
2019-03-25T09:14:09.262Z,3.18
2019-03-25T09:15:52.123Z,3.17
2019-03-25T09:17:38.082Z,3.14
2019-03-25T09:19:15.560Z,3.21
2019-03-25T09:20:51.231Z,3.11
2019-03-25T09:22:27.020Z,3.07
2019-03-25T09:24:03.865Z,3.08
2019-03-25T09:25:45.077Z,3.02
2019-03-25T09:27:21.639Z,3.02
2019-03-25T09:28:58.469Z,2.68
2019-03-25T09:31:20.333Z,2.51
2019-03-25T09:32:58.446Z,2.45
2019-03-25T09:34:35.743Z,2.35
2019-03-25T09:36:12.330Z,2.30
2019-03-25T09:37:48.674Z,2.18
2019-03-25T09:39:28.807Z,2.09
2019-03-25T09:41:10.181Z,2.09
2019-03-25T09:44:49.375Z,2.13
2019-03-25T09:46:25.321Z,2.18
2019-03-25T09:48:07.574Z,2.18
2019-03-25T09:49:53.190Z,2.21
2019-03-25T09:51:35.850Z,2.25
2019-03-25T09:53:24.032Z,2.06
2019-03-25T09:55:03.114Z,1.94
2019-03-25T09:56:43.340Z,1.84
2019-03-25T09:58:19.040Z,1.63
2019-03-25T09:59:59.846Z,1.56
2019-03-25T10:01:37.968Z,1.56
2019-03-25T10:03:18.407Z,1.53
2019-03-25T10:05:00.338Z,1.59
2019-03-25T10:06:36.992Z,1.60
2019-03-25T10:08:12.846Z,1.73
2019-03-25T10:09:51.513Z,1.72
2019-03-25T10:11:33.877Z,1.72
2019-03-25T10:13:17.148Z,1.93
2019-03-25T10:14:52.826Z,2.24
2019-03-25T10:16:30.731Z,2.62
2019-03-25T10:18:07.768Z,3.02
2019-03-25T10:19:48.084Z,3.22
2019-03-25T10:21:26.587Z,3.39
2019-03-25T10:23:03.647Z,3.28
2019-03-25T10:24:39.863Z,3.75
2019-03-25T10:26:19.378Z,3.88
2019-03-25T10:27:55.591Z,4.31
2019-03-25T10:29:31.425Z,4.42
2019-03-25T10:31:11.507Z,3.93
2019-03-25T10:32:47.263Z,3.80
2019-03-25T10:34:33.362Z,3.84
2019-03-25T10:36:16.322Z,3.56
2019-03-25T10:37:52.160Z,3.56
2019-03-25T10:39:31.210Z,3.75
2019-03-25T10:41:06.930Z,4.02
2019-03-25T10:42:43.211Z,4.14
2019-03-25T10:44:26.058Z,3.90
2019-03-25T10:46:10.589Z,3.83
2019-03-25T10:47:47.381Z,3.63
2019-03-25T10:49:25.661Z,3.64
2019-03-25T10:51:01.466Z,3.71
2019-03-25T10:52:38.148Z,3.73
2019-03-25T10:54:18.196Z,3.62
2019-03-25T10:55:58.839Z,3.54
2019-03-25T10:57:35.345Z,3.34
2019-03-25T10:59:22.125Z,3.28
2019-03-25T11:01:02.149Z,3.69
2019-03-25T11:02:37.805Z,3.89
2019-03-25T11:04:15.418Z,4.47
2019-03-25T11:05:56.538Z,4.34
2019-03-25T11:07:33.765Z,4.21
2019-03-25T11:09:17.365Z,4.12
2019-03-25T11:10:54.763Z,4.08
2019-03-25T11:12:34.670Z,3.95
2019-03-25T11:14:12.804Z,3.95
2019-03-25T11:15:49.168Z,3.73
2019-03-25T11:17:25.425Z,3.63
2019-03-25T11:19:01.666Z,3.55
2019-03-25T11:20:54.805Z,3.45
2019-03-25T11:22:31.022Z,3.27
2019-03-25T11:24:07.665Z,2.96
2019-03-25T11:25:43.465Z,2.85
2019-03-25T11:27:23.346Z,2.80
2019-03-25T11:29:08.248Z,2.75
2019-03-25T11:31:00.101Z,2.69
2019-03-25T11:32:51.106Z,2.67
2019-03-25T11:34:28.557Z,2.79
2019-03-25T11:36:06.603Z,3.19
2019-03-25T11:37:42.811Z,3.46
2019-03-25T11:39:21.771Z,3.75
2019-03-25T11:40:57.741Z,4.15
2019-03-25T11:42:38.408Z,4.43
2019-03-25T11:44:15.879Z,4.45
2019-03-25T11:45:53.690Z,5.01
2019-03-25T11:47:31.911Z,5.42
2019-03-25T11:49:11.847Z,5.71
2019-03-25T11:50:47.787Z,5.54
2019-03-25T11:52:26.645Z,5.06
2019-03-25T11:54:03.731Z,4.94
2019-03-25T11:55:43.177Z,4.88
2019-03-25T11:57:19.074Z,4.82
2019-03-25T11:58:54.801Z,4.84
2019-03-25T12:00:37.333Z,4.65
2019-03-25T12:02:19.060Z,4.61
2019-03-25T12:05:58.231Z,4.30
2019-03-25T12:07:37.328Z,4.24
2019-03-25T12:09:19.291Z,4.06
2019-03-25T12:10:57.927Z,3.56
2019-03-25T12:12:34.824Z,3.15
2019-03-25T12:14:14.338Z,3.00
2019-03-25T12:15:54.387Z,2.92
2019-03-25T12:17:31.606Z,2.95
2019-03-25T12:19:10.861Z,3.17
2019-03-25T12:20:47.344Z,3.54
2019-03-25T12:22:25.988Z,3.98
2019-03-25T12:24:01.691Z,4.24
2019-03-25T12:25:42.042Z,4.73
2019-03-25T12:27:17.654Z,4.66
2019-03-25T12:28:55.212Z,4.92
2019-03-25T12:30:30.841Z,5.03
2019-03-25T12:32:09.570Z,5.59
2019-03-25T12:33:45.790Z,6.03
2019-03-25T12:35:21.929Z,6.18
2019-03-25T12:36:57.717Z,5.66
2019-03-25T12:38:37.834Z,5.73
2019-03-25T12:40:14.768Z,5.69
2019-03-25T12:41:53.288Z,5.54
2019-03-25T12:43:31.630Z,5.40
2019-03-25T12:45:18.101Z,5.29
2019-03-25T12:46:54.115Z,5.42
2019-03-25T12:48:30.398Z,5.38
2019-03-25T12:50:06.372Z,5.42
2019-03-25T12:51:42.485Z,5.74
2019-03-25T12:53:18.654Z,5.92
2019-03-25T12:54:58.865Z,6.05
2019-03-25T12:56:34.525Z,5.91
2019-03-25T12:58:10.737Z,6.17
2019-03-25T12:59:51.490Z,6.01
2019-03-25T13:01:27.587Z,6.15
2019-03-25T13:03:14.436Z,5.98
2019-03-25T13:04:56.273Z,5.87
2019-03-25T13:06:36.617Z,5.49
2019-03-25T13:08:17.475Z,5.40
2019-03-25T13:09:54.949Z,5.17
2019-03-25T13:11:30.711Z,5.24
2019-03-25T13:13:06.345Z,4.80
2019-03-25T13:14:47.295Z,4.76
2019-03-25T13:16:28.901Z,4.95
2019-03-25T13:18:12.768Z,4.83
2019-03-25T13:19:55.388Z,5.16
2019-03-25T13:21:32.212Z,5.13
2019-03-25T13:23:13.474Z,5.00
2019-03-25T13:24:55.711Z,5.29
2019-03-25T13:26:34.791Z,5.52
2019-03-25T13:28:14.672Z,5.43
2019-03-25T13:29:52.695Z,5.71
2019-03-25T13:31:29.073Z,5.33
2019-03-25T13:33:06.181Z,5.53
2019-03-25T13:34:46.278Z,5.62
2019-03-25T13:36:21.933Z,5.71
2019-03-25T13:37:59.026Z,5.90
2019-03-25T13:39:35.345Z,5.76
2019-03-25T13:41:15.158Z,5.54
2019-03-25T13:42:50.915Z,5.29
2019-03-25T13:44:26.978Z,5.64
2019-03-25T13:46:08.209Z,5.78
2019-03-25T13:47:46.897Z,5.71
2019-03-25T13:49:22.600Z,5.71
2019-03-25T13:50:58.305Z,5.49
2019-03-25T13:52:34.545Z,5.43
2019-03-25T13:54:11.716Z,5.21
2019-03-25T13:55:47.511Z,5.08
2019-03-25T13:57:24.926Z,4.99
2019-03-25T13:59:03.692Z,4.45
2019-03-25T14:00:46.211Z,3.95
2019-03-25T14:02:24.398Z,3.68
2019-03-25T14:04:00.686Z,3.63
2019-03-25T14:05:37.373Z,3.52
2019-03-25T14:07:13.288Z,3.49
2019-03-25T14:08:55.876Z,3.53
2019-03-25T14:10:33.502Z,3.53
2019-03-25T14:12:12.524Z,3.65
2019-03-25T14:13:55.873Z,3.58
2019-03-25T14:15:40.538Z,3.67
2019-03-25T14:17:21.937Z,3.77
2019-03-25T14:18:58.307Z,3.63
2019-03-25T14:20:35.706Z,3.70
2019-03-25T14:22:14.407Z,3.65
2019-03-25T14:23:50.856Z,3.79
2019-03-25T14:25:29.976Z,3.93
2019-03-25T14:27:07.901Z,3.91
2019-03-25T14:28:50.532Z,3.78
2019-03-25T14:30:28.335Z,3.65
2019-03-25T14:32:04.775Z,3.70
2019-03-25T14:33:41.406Z,3.79
2019-03-25T14:35:44.672Z,3.59
2019-03-25T14:37:20.608Z,3.62
2019-03-25T14:38:57.708Z,3.50
2019-03-25T14:40:36.359Z,3.53
2019-03-25T14:42:17.145Z,3.55
2019-03-25T14:43:53.597Z,3.64
2019-03-25T14:45:34.041Z,3.74
2019-03-25T14:47:19.940Z,4.07
2019-03-25T14:48:55.714Z,4.11
2019-03-25T14:50:32.545Z,4.35
2019-03-25T14:52:10.270Z,4.24
2019-03-25T14:53:49.612Z,4.15
2019-03-25T14:55:27.940Z,4.19
2019-03-25T14:57:06.811Z,4.25
2019-03-25T14:58:54.788Z,4.25
2019-03-25T15:00:31.010Z,4.38
2019-03-25T15:02:11.729Z,4.45
2019-03-25T15:03:48.151Z,4.51
2019-03-25T15:05:25.775Z,4.72
2019-03-25T15:07:05.605Z,4.72
2019-03-25T15:08:42.794Z,4.87
2019-03-25T15:10:21.688Z,4.76
2019-03-25T15:11:58.954Z,4.75
2019-03-25T15:13:38.167Z,4.66
2019-03-25T15:15:19.658Z,4.75
2019-03-25T15:17:02.736Z,4.67
2019-03-25T15:18:58.330Z,4.63
2019-03-25T15:20:48.530Z,4.56
2019-03-25T15:22:27.514Z,4.55
2019-03-25T15:24:11.888Z,4.58
2019-03-25T15:25:56.737Z,4.51
2019-03-25T15:27:36.301Z,4.54
2019-03-25T15:29:28.230Z,4.48
2019-03-25T15:31:08.493Z,4.40
2019-03-25T15:32:51.779Z,4.40
2019-03-25T15:34:41.981Z,4.36
2019-03-25T15:36:27.915Z,4.28
2019-03-25T15:38:06.507Z,4.01
2019-03-25T15:39:47.179Z,3.62
2019-03-25T15:41:24.490Z,3.31
2019-03-25T15:43:00.965Z,2.99
2019-03-25T15:44:38.107Z,2.59
2019-03-25T15:46:23.450Z,2.59
2019-03-25T15:48:00.195Z,2.35
2019-03-25T15:50:01.910Z,2.26
2019-03-25T15:51:47.911Z,2.19
2019-03-25T15:53:28.694Z,2.17
2019-03-25T15:55:07.054Z,2.19
2019-03-25T15:56:48.117Z,2.28
2019-03-25T15:58:27.007Z,2.42
2019-03-25T16:00:11.080Z,2.48
2019-03-25T16:01:48.368Z,2.60
2019-03-25T16:03:24.758Z,2.68
2019-03-25T16:05:00.778Z,2.75
2019-03-25T16:06:41.425Z,2.78
2019-03-25T16:08:18.146Z,2.88
2019-03-25T16:09:58.789Z,2.91
2019-03-25T16:11:35.400Z,2.94
2019-03-25T16:13:17.550Z,3.01
2019-03-25T16:14:54.247Z,3.12
2019-03-25T16:16:38.995Z,3.04
2019-03-25T16:18:36.661Z,3.15
2019-03-25T16:20:25.495Z,3.21
2019-03-25T16:22:04.415Z,3.34
2019-03-25T16:23:42.989Z,3.39
2019-03-25T16:25:30.692Z,3.41
2019-03-25T16:27:06.869Z,3.39
2019-03-25T16:28:52.427Z,3.37
2019-03-25T16:30:29.100Z,3.31
2019-03-25T16:32:07.528Z,3.34
2019-03-25T16:33:45.488Z,3.34
2019-03-25T16:35:25.404Z,3.31
2019-03-25T16:37:03.031Z,3.31
2019-03-25T16:38:43.586Z,3.36
2019-03-25T16:40:23.231Z,3.42
2019-03-25T16:42:04.245Z,3.45
2019-03-25T16:43:43.275Z,3.46
2019-03-25T16:45:22.599Z,3.45
2019-03-25T16:47:20.426Z,3.44
2019-03-25T16:49:03.664Z,3.45
2019-03-25T16:50:44.993Z,3.52
2019-03-25T16:52:24.262Z,3.54
2019-03-25T16:54:19.526Z,3.50
2019-03-25T16:55:56.310Z,3.55
2019-03-25T16:57:37.372Z,3.52
2019-03-25T16:59:17.580Z,3.56
2019-03-25T17:00:56.562Z,3.51
2019-03-25T17:02:35.951Z,3.45
2019-03-25T17:04:12.651Z,3.48
2019-03-25T17:05:53.814Z,3.44
2019-03-25T17:07:37.615Z,3.48
2019-03-25T17:09:14.226Z,3.45
2019-03-25T17:10:51.771Z,3.42
2019-03-25T17:12:34.861Z,3.40
2019-03-25T17:14:15.714Z,3.41
2019-03-25T17:15:55.117Z,3.40
2019-03-25T17:17:45.629Z,3.40
2019-03-25T17:19:30.841Z,3.42
2019-03-25T17:21:27.040Z,3.43
2019-03-25T17:23:04.695Z,3.40
2019-03-25T17:24:45.451Z,3.33
2019-03-25T17:26:41.987Z,3.14
2019-03-25T17:28:12.767Z,3.00
2019-03-25T17:29:54.287Z,2.92
2019-03-25T17:31:32.447Z,2.83
2019-03-25T17:33:08.345Z,2.83
2019-03-25T17:34:51.245Z,2.77
2019-03-25T17:36:40.374Z,2.77
2019-03-25T17:38:20.674Z,2.75
2019-03-25T17:40:09.415Z,2.69
2019-03-25T17:41:51.301Z,2.70
2019-03-25T17:43:36.050Z,2.68
2019-03-25T17:45:14.448Z,2.72
2019-03-25T17:46:52.300Z,2.70
2019-03-25T17:48:32.161Z,2.71
2019-03-25T17:50:12.616Z,2.74
2019-03-25T17:51:52.664Z,2.80
2019-03-25T17:53:34.919Z,2.79
2019-03-25T17:55:13.093Z,2.88
2019-03-25T17:56:50.726Z,2.89
2019-03-25T17:58:28.709Z,2.89
2019-03-25T18:00:10.121Z,2.90
2019-03-25T18:01:48.234Z,3.01
2019-03-25T18:03:26.947Z,2.95
2019-03-25T18:05:03.666Z,2.92
2019-03-25T18:06:40.600Z,2.95
2019-03-25T18:08:16.615Z,2.93
2019-03-25T18:09:57.762Z,2.88
2019-03-25T18:11:35.110Z,2.91
2019-03-25T18:13:22.000Z,2.93
2019-03-25T18:14:51.961Z,2.91
2019-03-25T18:16:38.400Z,2.97
2019-03-25T18:18:24.687Z,2.98
2019-03-25T18:20:06.243Z,2.99
2019-03-25T18:21:51.737Z,3.02
2019-03-25T18:23:42.325Z,3.01
2019-03-25T18:25:39.337Z,2.97
2019-03-25T18:27:19.796Z,2.98
2019-03-25T18:28:57.688Z,2.95
2019-03-25T18:30:41.594Z,2.98
2019-03-25T18:32:29.151Z,2.97
2019-03-25T18:34:17.499Z,2.97
2019-03-25T18:35:59.233Z,2.97
2019-03-25T18:37:41.706Z,2.99
2019-03-25T18:39:34.240Z,2.98
2019-03-25T18:41:11.842Z,3.03
2019-03-25T18:42:53.687Z,3.06
2019-03-25T18:44:30.232Z,3.05
2019-03-25T18:46:08.590Z,3.05
2019-03-25T18:47:48.179Z,3.03
2019-03-25T18:49:28.807Z,3.02
2019-03-25T18:51:09.196Z,3.02
2019-03-25T18:52:48.759Z,3.04
2019-03-25T18:54:27.029Z,3.00
2019-03-25T18:56:06.282Z,3.03
2019-03-25T18:57:44.317Z,3.02
2019-03-25T18:59:38.209Z,3.00
2019-03-25T19:01:20.706Z,2.99
2019-03-25T19:03:19.660Z,2.97
2019-03-25T19:05:02.633Z,2.95
2019-03-25T19:06:41.018Z,2.92
2019-03-25T19:08:20.650Z,2.90
2019-03-25T19:10:09.817Z,2.92
2019-03-25T19:11:45.330Z,2.84
2019-03-25T19:13:21.099Z,2.79
2019-03-25T19:15:08.883Z,2.79
2019-03-25T19:16:47.427Z,2.73
2019-03-25T19:18:35.675Z,2.70
2019-03-25T19:20:12.969Z,2.71
2019-03-25T19:21:49.412Z,2.69
2019-03-25T19:23:31.207Z,2.66
2019-03-25T19:25:12.842Z,2.64
2019-03-25T19:26:55.833Z,2.61
2019-03-25T19:28:37.483Z,2.61
2019-03-25T19:30:24.032Z,2.59
2019-03-25T19:32:06.918Z,2.51
2019-03-25T19:33:48.652Z,2.49
2019-03-25T19:35:36.092Z,2.46
2019-03-25T19:37:19.482Z,2.45
2019-03-25T19:38:57.303Z,2.39
2019-03-25T19:40:34.174Z,2.34
2019-03-25T19:42:14.503Z,2.36
2019-03-25T19:44:04.512Z,2.32
2019-03-25T19:46:03.344Z,2.33
2019-03-25T19:47:30.869Z,2.30
2019-03-25T19:49:17.278Z,2.30
2019-03-25T19:51:00.224Z,2.30
2019-03-25T19:52:50.941Z,2.33
2019-03-25T19:54:30.460Z,2.28
2019-03-25T19:56:10.646Z,2.26
2019-03-25T19:58:00.577Z,2.29
2019-03-25T19:59:45.481Z,2.25
2019-03-25T20:01:27.091Z,2.26
2019-03-25T20:03:05.400Z,2.32
2019-03-25T20:04:49.411Z,2.30
2019-03-25T20:06:37.780Z,2.39
2019-03-25T20:08:14.396Z,2.37
2019-03-25T20:09:50.409Z,2.34
2019-03-25T20:11:26.342Z,2.42
2019-03-25T20:13:02.714Z,2.43
2019-03-25T20:14:39.174Z,2.46
2019-03-25T20:16:18.821Z,2.44
2019-03-25T20:17:55.267Z,2.54
2019-03-25T20:19:33.073Z,2.53
2019-03-25T20:21:14.868Z,2.49
2019-03-25T20:22:50.784Z,2.53
2019-03-25T20:24:30.013Z,2.55
2019-03-25T20:26:16.548Z,2.66
2019-03-25T20:27:58.273Z,2.64
2019-03-25T20:29:37.717Z,2.66
2019-03-25T20:31:15.811Z,2.66
2019-03-25T20:32:56.964Z,2.70
2019-03-25T20:34:37.596Z,2.70
2019-03-25T20:36:38.536Z,2.72
2019-03-25T20:38:12.812Z,2.74
2019-03-25T20:39:51.773Z,2.77
2019-03-25T20:41:32.282Z,2.81
2019-03-25T20:43:13.646Z,2.77
2019-03-25T20:44:53.765Z,2.81
2019-03-25T20:46:34.116Z,2.80
2019-03-25T20:48:10.004Z,2.80
2019-03-25T20:49:49.258Z,2.82
2019-03-25T20:51:29.866Z,2.82
2019-03-25T20:53:09.980Z,2.85
2019-03-25T20:54:48.858Z,2.83
2019-03-25T20:56:24.913Z,2.80
2019-03-25T20:58:01.202Z,2.76
2019-03-25T20:59:37.106Z,2.78
2019-03-25T21:02:57.148Z,2.76
2019-03-25T21:04:33.438Z,2.79
2019-03-25T21:06:12.042Z,2.79
2019-03-25T21:07:50.756Z,2.76
2019-03-25T21:09:28.666Z,2.81
2019-03-25T21:11:05.779Z,2.76
2019-03-25T21:12:42.298Z,2.76
2019-03-25T21:14:21.169Z,2.74
2019-03-25T21:15:59.095Z,2.72
2019-03-25T21:17:37.737Z,2.69
2019-03-25T21:19:23.387Z,2.68
2019-03-25T21:21:03.466Z,2.67
2019-03-25T21:22:40.232Z,2.66
2019-03-25T21:24:32.086Z,2.65
2019-03-25T21:26:11.033Z,2.65
2019-03-25T21:28:02.854Z,2.68
2019-03-25T21:29:39.157Z,2.64
2019-03-25T21:31:41.233Z,2.63
2019-03-25T21:33:19.875Z,2.63
2019-03-25T21:35:05.099Z,2.58
2019-03-25T21:36:41.336Z,2.56
2019-03-25T21:38:34.909Z,2.48
2019-03-25T21:40:13.406Z,2.50
2019-03-25T21:41:49.299Z,2.49
2019-03-25T21:43:25.217Z,2.42
2019-03-25T21:45:09.697Z,2.41
2019-03-25T21:46:46.147Z,2.41
2019-03-25T21:48:41.380Z,2.40
2019-03-25T21:50:23.960Z,2.39
2019-03-25T21:52:12.319Z,2.44
2019-03-25T21:54:00.858Z,2.45
2019-03-25T21:55:38.675Z,2.50
2019-03-25T21:57:19.622Z,2.52
2019-03-25T21:58:54.837Z,2.57
2019-03-25T22:00:33.440Z,2.65
2019-03-25T22:02:12.948Z,2.62
2019-03-25T22:04:08.642Z,2.65
2019-03-25T22:05:46.153Z,2.67
2019-03-25T22:07:22.955Z,2.75